createdAt,value
2018-11-14T00:00:45.011Z,1003.92
2018-11-14T00:01:45.000Z,1003.96
2018-11-14T00:02:44.984Z,1004.04
2018-11-14T00:03:45.164Z,1003.95
2018-11-14T00:04:44.961Z,1003.96
2018-11-14T00:05:44.951Z,1003.97
2018-11-14T00:06:44.950Z,1004.01
2018-11-14T00:07:44.935Z,1003.96
2018-11-14T00:08:44.924Z,1003.93
2018-11-14T00:09:45.006Z,1003.96
2018-11-14T00:10:44.906Z,1003.90
2018-11-14T00:11:44.886Z,1003.93
2018-11-14T00:12:44.877Z,1003.88
2018-11-14T00:13:44.871Z,1003.86
2018-11-14T00:14:44.858Z,1003.90
2018-11-14T00:15:44.885Z,1003.90
2018-11-14T00:16:44.832Z,1003.86
2018-11-14T00:17:44.825Z,1003.87
2018-11-14T00:18:44.816Z,1003.92
2018-11-14T00:19:44.803Z,1003.94
2018-11-14T00:20:44.797Z,1003.89
2018-11-14T00:21:45.322Z,1003.95
2018-11-14T00:22:44.768Z,1003.90
2018-11-14T00:23:44.764Z,1003.94
2018-11-14T00:24:44.788Z,1003.94
2018-11-14T00:25:44.739Z,1003.91
2018-11-14T00:26:55.674Z,1003.89
2018-11-14T00:27:44.786Z,1003.95
2018-11-14T00:28:44.703Z,1003.96
2018-11-14T00:29:44.694Z,1003.92
2018-11-14T00:30:44.688Z,1003.97
2018-11-14T00:31:44.670Z,1003.95
2018-11-14T00:32:44.856Z,1004.03
2018-11-14T00:33:44.713Z,1003.99
2018-11-14T00:34:44.676Z,1004.05
2018-11-14T00:35:44.739Z,1004.02
2018-11-14T00:36:44.622Z,1004.09
2018-11-14T00:37:44.614Z,1004.11
2018-11-14T00:38:44.677Z,1004.05
2018-11-14T00:39:44.584Z,1004.05
2018-11-14T00:40:44.582Z,1004.04
2018-11-14T00:41:44.569Z,1003.95
2018-11-14T00:42:44.551Z,1003.96
2018-11-14T00:43:44.546Z,1003.99
2018-11-14T00:44:44.548Z,1004.04
2018-11-14T00:45:44.523Z,1004.04
2018-11-14T00:46:44.510Z,1004.00
2018-11-14T00:47:44.506Z,1004.03
2018-11-14T00:48:44.490Z,1004.06
2018-11-14T00:49:44.482Z,1004.01
2018-11-14T00:50:44.680Z,1004.00
2018-11-14T00:51:44.461Z,1004.02
2018-11-14T00:52:44.451Z,1004.10
2018-11-14T00:53:44.444Z,1004.07
2018-11-14T00:54:44.427Z,1004.10
2018-11-14T00:55:44.417Z,1004.09
2018-11-14T00:56:44.445Z,1004.13
2018-11-14T00:57:55.271Z,1004.11
2018-11-14T00:58:44.381Z,1004.10
2018-11-14T00:59:44.374Z,1004.08
2018-11-14T01:00:44.364Z,1004.11
2018-11-14T01:01:44.461Z,1004.08
2018-11-14T01:02:44.377Z,1004.09
2018-11-14T01:03:44.328Z,1004.09
2018-11-14T01:04:44.320Z,1004.11
2018-11-14T01:05:44.312Z,1004.13
2018-11-14T01:06:44.298Z,1004.14
2018-11-14T01:07:44.286Z,1004.13
2018-11-14T01:08:44.314Z,1004.17
2018-11-14T01:09:44.259Z,1004.17
2018-11-14T01:10:44.254Z,1004.16
2018-11-14T01:11:44.247Z,1004.17
2018-11-14T01:12:44.234Z,1004.21
2018-11-14T01:13:44.217Z,1004.21
2018-11-14T01:14:44.251Z,1004.20
2018-11-14T01:15:44.197Z,1004.19
2018-11-14T01:16:44.187Z,1004.22
2018-11-14T01:17:44.177Z,1004.18
2018-11-14T01:18:44.165Z,1004.16
2018-11-14T01:19:44.152Z,1004.19
2018-11-14T01:20:44.200Z,1004.15
2018-11-14T01:21:44.170Z,1004.14
2018-11-14T01:22:44.126Z,1004.15
2018-11-14T01:23:44.117Z,1004.19
2018-11-14T01:24:44.105Z,1004.22
2018-11-14T01:25:44.090Z,1004.24
2018-11-14T01:26:44.123Z,1004.21
2018-11-14T01:27:44.074Z,1004.25
2018-11-14T01:28:54.311Z,1004.22
2018-11-14T01:29:44.044Z,1004.16
2018-11-14T01:30:44.038Z,1004.17
2018-11-14T01:31:44.028Z,1004.19
2018-11-14T01:32:44.048Z,1004.21
2018-11-14T01:33:44.004Z,1004.20
2018-11-14T01:34:43.996Z,1004.21
2018-11-14T01:35:44.039Z,1004.20
2018-11-14T01:36:43.983Z,1004.21
2018-11-14T01:37:43.966Z,1004.17
2018-11-14T01:38:44.224Z,1004.20
2018-11-14T01:39:43.940Z,1004.15
2018-11-14T01:40:43.929Z,1004.20
2018-11-14T01:41:43.926Z,1004.12
2018-11-14T01:42:43.905Z,1004.21
2018-11-14T01:43:43.894Z,1004.19
2018-11-14T01:44:43.923Z,1004.14
2018-11-14T01:45:43.880Z,1004.14
2018-11-14T01:46:43.866Z,1004.09
2018-11-14T01:47:43.853Z,1004.11
2018-11-14T01:48:43.840Z,1004.06
2018-11-14T01:49:43.829Z,1004.08
2018-11-14T01:50:43.857Z,1004.04
2018-11-14T01:51:43.813Z,1004.03
2018-11-14T01:52:43.802Z,1004.09
2018-11-14T01:53:43.791Z,1004.10
2018-11-14T01:54:43.781Z,1004.04
2018-11-14T01:55:43.772Z,1004.06
2018-11-14T01:56:43.799Z,1004.01
2018-11-14T01:57:43.747Z,1004.13
2018-11-14T01:58:43.739Z,1004.09
2018-11-14T01:59:53.999Z,1004.09
2018-11-14T02:00:43.714Z,1004.12
2018-11-14T02:01:43.704Z,1004.09
2018-11-14T02:02:43.725Z,1004.17
2018-11-14T02:03:43.682Z,1004.17
2018-11-14T02:04:43.672Z,1004.20
2018-11-14T02:05:43.658Z,1004.21
2018-11-14T02:06:43.652Z,1004.19
2018-11-14T02:07:43.647Z,1004.24
2018-11-14T02:08:43.645Z,1004.28
2018-11-14T02:09:43.620Z,1004.28
2018-11-14T02:10:43.609Z,1004.28
2018-11-14T02:11:43.595Z,1004.27
2018-11-14T02:12:43.592Z,1004.23
2018-11-14T02:13:43.579Z,1004.24
2018-11-14T02:14:43.588Z,1004.24
2018-11-14T02:15:43.553Z,1004.20
2018-11-14T02:16:43.540Z,1004.26
2018-11-14T02:17:43.541Z,1004.22
2018-11-14T02:18:43.524Z,1004.32
2018-11-14T02:19:43.517Z,1004.28
2018-11-14T02:20:43.715Z,1004.25
2018-11-14T02:21:43.494Z,1004.25
2018-11-14T02:22:43.476Z,1004.26
2018-11-14T02:23:43.468Z,1004.29
2018-11-14T02:24:43.460Z,1004.26
2018-11-14T02:25:43.457Z,1004.33
2018-11-14T02:26:43.477Z,1004.36
2018-11-14T02:27:43.431Z,1004.28
2018-11-14T02:28:43.413Z,1004.31
2018-11-14T02:29:43.412Z,1004.33
2018-11-14T02:30:55.097Z,1004.36
2018-11-14T02:31:43.380Z,1004.35
2018-11-14T02:32:43.539Z,1004.32
2018-11-14T02:33:43.364Z,1004.31
2018-11-14T02:34:43.354Z,1004.36
2018-11-14T02:35:43.337Z,1004.37
2018-11-14T02:36:43.332Z,1004.32
2018-11-14T02:37:43.332Z,1004.35
2018-11-14T02:38:43.479Z,1004.33
2018-11-14T02:39:43.307Z,1004.36
2018-11-14T02:40:43.285Z,1004.35
2018-11-14T02:41:43.271Z,1004.34
2018-11-14T02:42:43.272Z,1004.34
2018-11-14T02:43:43.257Z,1004.40
2018-11-14T02:44:43.288Z,1004.37
2018-11-14T02:45:43.228Z,1004.43
2018-11-14T02:46:43.225Z,1004.40
2018-11-14T02:47:43.214Z,1004.38
2018-11-14T02:48:43.197Z,1004.45
2018-11-14T02:49:43.196Z,1004.43
2018-11-14T02:50:43.258Z,1004.41
2018-11-14T02:51:43.170Z,1004.43
2018-11-14T02:52:43.154Z,1004.43
2018-11-14T02:53:43.147Z,1004.39
2018-11-14T02:54:43.140Z,1004.44
2018-11-14T02:55:43.128Z,1004.45
2018-11-14T02:56:43.145Z,1004.47
2018-11-14T02:57:43.106Z,1004.45
2018-11-14T02:58:43.097Z,1004.44
2018-11-14T02:59:43.082Z,1004.51
2018-11-14T03:00:43.071Z,1004.51
2018-11-14T03:01:53.778Z,1004.51
2018-11-14T03:02:43.044Z,1004.55
2018-11-14T03:03:43.038Z,1004.56
2018-11-14T03:04:43.026Z,1004.55
2018-11-14T03:05:43.022Z,1004.56
2018-11-14T03:06:43.003Z,1004.59
2018-11-14T03:07:43.169Z,1004.60
2018-11-14T03:08:42.984Z,1004.57
2018-11-14T03:09:42.973Z,1004.60
2018-11-14T03:10:42.963Z,1004.55
2018-11-14T03:11:42.946Z,1004.62
2018-11-14T03:12:42.944Z,1004.61
2018-11-14T03:13:42.949Z,1004.59
2018-11-14T03:14:42.917Z,1004.55
2018-11-14T03:15:42.911Z,1004.62
2018-11-14T03:16:42.893Z,1004.62
2018-11-14T03:17:42.902Z,1004.63
2018-11-14T03:18:42.881Z,1004.65
2018-11-14T03:19:42.886Z,1004.64
2018-11-14T03:20:42.858Z,1004.68
2018-11-14T03:21:42.845Z,1004.64
2018-11-14T03:22:42.836Z,1004.66
2018-11-14T03:23:42.827Z,1004.64
2018-11-14T03:24:42.813Z,1004.64
2018-11-14T03:25:42.832Z,1004.65
2018-11-14T03:26:42.800Z,1004.65
2018-11-14T03:27:42.789Z,1004.66
2018-11-14T03:28:42.768Z,1004.73
2018-11-14T03:29:42.757Z,1004.66
2018-11-14T03:30:42.751Z,1004.68
2018-11-14T03:31:42.768Z,1004.73
2018-11-14T03:32:53.154Z,1004.69
2018-11-14T03:33:42.711Z,1004.63
2018-11-14T03:34:42.701Z,1004.68
2018-11-14T03:35:42.695Z,1004.62
2018-11-14T03:36:42.683Z,1004.65
2018-11-14T03:37:42.719Z,1004.66
2018-11-14T03:38:42.656Z,1004.67
2018-11-14T03:39:42.654Z,1004.71
2018-11-14T03:40:42.634Z,1004.70
2018-11-14T03:41:42.631Z,1004.73
2018-11-14T03:42:42.618Z,1004.74
2018-11-14T03:43:42.645Z,1004.74
2018-11-14T03:44:42.600Z,1004.72
2018-11-14T03:45:42.582Z,1004.76
2018-11-14T03:46:42.575Z,1004.75
2018-11-14T03:47:42.562Z,1004.76
2018-11-14T03:48:42.560Z,1004.78
2018-11-14T03:49:42.575Z,1004.74
2018-11-14T03:50:42.529Z,1004.76
2018-11-14T03:51:42.524Z,1004.77
2018-11-14T03:52:42.506Z,1004.77
2018-11-14T03:53:42.506Z,1004.75
2018-11-14T03:54:42.489Z,1004.75
2018-11-14T03:55:42.516Z,1004.76
2018-11-14T03:56:42.465Z,1004.78
2018-11-14T03:57:42.460Z,1004.77
2018-11-14T03:58:42.445Z,1004.82
2018-11-14T03:59:42.435Z,1004.81
2018-11-14T04:00:42.423Z,1004.86
2018-11-14T04:01:42.597Z,1004.79
2018-11-14T04:02:42.400Z,1004.82
2018-11-14T04:03:52.889Z,1004.85
2018-11-14T04:04:42.377Z,1004.80
2018-11-14T04:05:42.365Z,1004.85
2018-11-14T04:06:42.367Z,1004.88
2018-11-14T04:07:42.387Z,1004.90
2018-11-14T04:08:42.336Z,1004.85
2018-11-14T04:09:42.328Z,1004.91
2018-11-14T04:10:42.320Z,1004.87
2018-11-14T04:11:42.308Z,1004.86
2018-11-14T04:12:42.295Z,1004.83
2018-11-14T04:13:42.317Z,1004.87
2018-11-14T04:14:42.274Z,1004.93
2018-11-14T04:15:42.263Z,1004.84
2018-11-14T04:16:42.254Z,1004.89
2018-11-14T04:17:42.241Z,1004.88
2018-11-14T04:18:42.228Z,1004.85
2018-11-14T04:19:42.306Z,1004.86
2018-11-14T04:20:42.207Z,1004.87
2018-11-14T04:21:42.194Z,1004.90
2018-11-14T04:22:42.186Z,1004.94
2018-11-14T04:23:42.185Z,1004.96
2018-11-14T04:24:42.164Z,1004.92
2018-11-14T04:25:42.197Z,1004.96
2018-11-14T04:26:42.151Z,1005.02
2018-11-14T04:27:42.134Z,1005.01
2018-11-14T04:28:42.132Z,1005.06
2018-11-14T04:29:42.114Z,1005.07
2018-11-14T04:30:42.103Z,1005.05
2018-11-14T04:31:42.134Z,1005.06
2018-11-14T04:32:42.086Z,1005.08
2018-11-14T04:33:42.064Z,1005.04
2018-11-14T04:34:52.905Z,1005.07
2018-11-14T04:35:42.045Z,1005.04
2018-11-14T04:36:42.036Z,1005.06
2018-11-14T04:37:42.063Z,1005.02
2018-11-14T04:38:42.013Z,1005.07
2018-11-14T04:39:42.008Z,1005.10
2018-11-14T04:40:41.988Z,1005.05
2018-11-14T04:41:41.983Z,1005.09
2018-11-14T04:42:41.974Z,1005.12
2018-11-14T04:43:41.999Z,1005.09
2018-11-14T04:44:41.948Z,1005.13
2018-11-14T04:45:41.937Z,1005.17
2018-11-14T04:46:41.929Z,1005.18
2018-11-14T04:47:41.921Z,1005.14
2018-11-14T04:48:41.909Z,1005.09
2018-11-14T04:49:41.929Z,1005.12
2018-11-14T04:50:41.882Z,1005.15
2018-11-14T04:51:41.877Z,1005.15
2018-11-14T04:52:41.862Z,1005.19
2018-11-14T04:53:41.855Z,1005.19
2018-11-14T04:54:41.838Z,1005.24
2018-11-14T04:55:41.870Z,1005.21
2018-11-14T04:56:41.826Z,1005.24
2018-11-14T04:57:41.812Z,1005.22
2018-11-14T04:58:41.799Z,1005.23
2018-11-14T04:59:41.791Z,1005.27
2018-11-14T05:00:41.775Z,1005.25
2018-11-14T05:01:41.812Z,1005.28
2018-11-14T05:02:41.801Z,1005.30
2018-11-14T05:03:41.747Z,1005.29
2018-11-14T05:04:41.734Z,1005.28
2018-11-14T05:05:52.028Z,1005.34
2018-11-14T05:06:41.711Z,1005.34
2018-11-14T05:07:41.741Z,1005.30
2018-11-14T05:08:41.692Z,1005.34
2018-11-14T05:09:41.685Z,1005.37
2018-11-14T05:10:41.669Z,1005.34
2018-11-14T05:11:41.656Z,1005.37
2018-11-14T05:12:41.675Z,1005.33
2018-11-14T05:13:41.672Z,1005.34
2018-11-14T05:14:41.628Z,1005.38
2018-11-14T05:15:41.619Z,1005.39
2018-11-14T05:16:41.605Z,1005.38
2018-11-14T05:17:41.590Z,1005.42
2018-11-14T05:18:41.585Z,1005.46
2018-11-14T05:19:41.621Z,1005.45
2018-11-14T05:20:41.566Z,1005.46
2018-11-14T05:21:41.548Z,1005.49
2018-11-14T05:22:41.544Z,1005.53
2018-11-14T05:23:41.530Z,1005.62
2018-11-14T05:24:41.558Z,1005.64
2018-11-14T05:25:41.676Z,1005.58
2018-11-14T05:26:41.503Z,1005.59
2018-11-14T05:27:41.484Z,1005.65
2018-11-14T05:28:41.473Z,1005.60
2018-11-14T05:29:41.466Z,1005.64
2018-11-14T05:30:41.449Z,1005.71
2018-11-14T05:31:41.497Z,1005.63
2018-11-14T05:32:41.432Z,1005.63
2018-11-14T05:33:41.423Z,1005.70
2018-11-14T05:34:41.417Z,1005.68
2018-11-14T05:35:41.398Z,1005.67
2018-11-14T05:36:53.358Z,1005.69
2018-11-14T05:37:41.373Z,1005.68
2018-11-14T05:38:41.368Z,1005.68
2018-11-14T05:39:41.451Z,1005.69
2018-11-14T05:40:41.349Z,1005.73
2018-11-14T05:41:41.337Z,1005.74
2018-11-14T05:42:41.369Z,1005.67
2018-11-14T05:43:41.313Z,1005.67
2018-11-14T05:44:41.311Z,1005.67
2018-11-14T05:45:41.427Z,1005.66
2018-11-14T05:46:41.282Z,1005.70
2018-11-14T05:47:41.267Z,1005.69
2018-11-14T05:48:41.445Z,1005.68
2018-11-14T05:49:41.255Z,1005.72
2018-11-14T05:50:41.236Z,1005.78
2018-11-14T05:51:41.225Z,1005.77
2018-11-14T05:52:41.215Z,1005.84
2018-11-14T05:53:41.205Z,1005.83
2018-11-14T05:54:41.389Z,1005.84
2018-11-14T05:55:41.186Z,1005.84
2018-11-14T05:56:41.188Z,1005.86
2018-11-14T05:57:41.160Z,1005.84
2018-11-14T05:58:41.162Z,1005.89
2018-11-14T05:59:41.149Z,1005.88
2018-11-14T06:00:41.313Z,1005.87
2018-11-14T06:01:41.137Z,1005.92
2018-11-14T06:02:41.113Z,1005.91
2018-11-14T06:03:41.099Z,1005.88
2018-11-14T06:04:41.082Z,1005.97
2018-11-14T06:05:41.080Z,1005.99
2018-11-14T06:06:41.104Z,1005.94
2018-11-14T06:07:51.399Z,1005.95
2018-11-14T06:08:41.046Z,1005.99
2018-11-14T06:09:41.033Z,1005.99
2018-11-14T06:10:41.047Z,1006.01
2018-11-14T06:11:41.006Z,1005.96
2018-11-14T06:12:41.170Z,1006.00
2018-11-14T06:13:41.010Z,1006.00
2018-11-14T06:14:40.984Z,1006.02
2018-11-14T06:15:40.968Z,1006.00
2018-11-14T06:16:40.957Z,1006.03
2018-11-14T06:17:40.970Z,1005.97
2018-11-14T06:18:40.954Z,1006.02
2018-11-14T06:19:40.924Z,1006.07
2018-11-14T06:20:40.909Z,1006.04
2018-11-14T06:21:40.902Z,1006.09
2018-11-14T06:22:40.887Z,1006.08
2018-11-14T06:23:41.029Z,1006.10
2018-11-14T06:24:40.912Z,1006.02
2018-11-14T06:25:40.856Z,1006.08
2018-11-14T06:26:40.849Z,1006.12
2018-11-14T06:27:40.864Z,1006.13
2018-11-14T06:28:40.830Z,1006.14
2018-11-14T06:29:40.886Z,1006.17
2018-11-14T06:30:40.869Z,1006.15
2018-11-14T06:31:40.788Z,1006.17
2018-11-14T06:32:40.779Z,1006.19
2018-11-14T06:33:40.791Z,1006.21
2018-11-14T06:34:40.759Z,1006.28
2018-11-14T06:35:40.759Z,1006.18
2018-11-14T06:36:40.780Z,1006.22
2018-11-14T06:37:40.731Z,1006.21
2018-11-14T06:38:52.184Z,1006.22
2018-11-14T06:39:40.712Z,1006.22
2018-11-14T06:40:40.704Z,1006.21
2018-11-14T06:41:40.762Z,1006.23
2018-11-14T06:42:40.741Z,1006.19
2018-11-14T06:43:40.668Z,1006.25
2018-11-14T06:44:40.648Z,1006.26
2018-11-14T06:45:40.646Z,1006.28
2018-11-14T06:46:40.635Z,1006.27
2018-11-14T06:47:40.627Z,1006.29
2018-11-14T06:48:40.623Z,1006.28
2018-11-14T06:49:40.601Z,1006.28
2018-11-14T06:50:40.593Z,1006.31
2018-11-14T06:51:40.579Z,1006.26
2018-11-14T06:52:40.570Z,1006.34
2018-11-14T06:53:40.558Z,1006.28
2018-11-14T06:54:40.715Z,1006.31
2018-11-14T06:55:40.534Z,1006.33
2018-11-14T06:56:40.520Z,1006.30
2018-11-14T06:57:40.514Z,1006.34
2018-11-14T06:58:40.579Z,1006.31
2018-11-14T06:59:40.539Z,1006.32
2018-11-14T07:00:40.651Z,1006.34
2018-11-14T07:01:40.471Z,1006.35
2018-11-14T07:02:40.459Z,1006.31
2018-11-14T07:03:40.453Z,1006.34
2018-11-14T07:04:40.443Z,1006.35
2018-11-14T07:05:40.514Z,1006.39
2018-11-14T07:06:40.495Z,1006.37
2018-11-14T07:07:40.406Z,1006.40
2018-11-14T07:08:40.393Z,1006.41
2018-11-14T07:09:50.651Z,1006.40
2018-11-14T07:10:40.373Z,1006.41
2018-11-14T07:11:40.355Z,1006.44
2018-11-14T07:12:40.389Z,1006.39
2018-11-14T07:13:40.336Z,1006.42
2018-11-14T07:14:40.632Z,1006.46
2018-11-14T07:15:40.318Z,1006.43
2018-11-14T07:16:40.451Z,1006.43
2018-11-14T07:17:40.357Z,1006.44
2018-11-14T07:18:40.321Z,1006.44
2018-11-14T07:19:40.318Z,1006.42
2018-11-14T07:20:40.262Z,1006.43
2018-11-14T07:21:40.255Z,1006.48
2018-11-14T07:22:40.239Z,1006.51
2018-11-14T07:23:40.312Z,1006.52
2018-11-14T07:24:40.462Z,1006.51
2018-11-14T07:25:40.223Z,1006.53
2018-11-14T07:26:40.198Z,1006.56
2018-11-14T07:27:40.183Z,1006.54
2018-11-14T07:28:40.182Z,1006.53
2018-11-14T07:29:40.173Z,1006.53
2018-11-14T07:30:40.194Z,1006.60
2018-11-14T07:31:40.143Z,1006.55
2018-11-14T07:32:40.132Z,1006.52
2018-11-14T07:33:40.151Z,1006.51
2018-11-14T07:34:40.159Z,1006.55
2018-11-14T07:35:40.100Z,1006.54
2018-11-14T07:36:40.137Z,1006.56
2018-11-14T07:37:40.105Z,1006.52
2018-11-14T07:38:40.065Z,1006.56
2018-11-14T07:39:40.055Z,1006.55
2018-11-14T07:40:50.344Z,1006.55
2018-11-14T07:41:40.031Z,1006.56
2018-11-14T07:42:40.078Z,1006.58
2018-11-14T07:43:40.093Z,1006.57
2018-11-14T07:44:40.014Z,1006.55
2018-11-14T07:45:40.884Z,1006.58
2018-11-14T07:46:39.986Z,1006.57
2018-11-14T07:47:39.972Z,1006.61
2018-11-14T07:48:40.138Z,1006.58
2018-11-14T07:49:39.953Z,1006.59
2018-11-14T07:50:39.959Z,1006.60
2018-11-14T07:51:39.929Z,1006.61
2018-11-14T07:52:39.917Z,1006.58
2018-11-14T07:53:39.918Z,1006.60
2018-11-14T07:54:39.978Z,1006.59
2018-11-14T07:55:39.881Z,1006.57
2018-11-14T07:56:39.908Z,1006.58
2018-11-14T07:57:39.865Z,1006.61
2018-11-14T07:58:39.859Z,1006.60
2018-11-14T07:59:39.841Z,1006.58
2018-11-14T08:00:39.873Z,1006.63
2018-11-14T08:01:39.822Z,1006.65
2018-11-14T08:02:39.811Z,1006.68
2018-11-14T08:03:39.804Z,1006.66
2018-11-14T08:04:39.781Z,1006.74
2018-11-14T08:05:39.789Z,1006.74
2018-11-14T08:06:39.861Z,1006.81
2018-11-14T08:07:39.756Z,1006.81
2018-11-14T08:08:39.746Z,1006.86
2018-11-14T08:09:39.793Z,1006.91
2018-11-14T08:10:39.720Z,1006.92
2018-11-14T08:11:49.950Z,1006.91
2018-11-14T08:12:39.699Z,1006.94
2018-11-14T08:13:39.685Z,1006.98
2018-11-14T08:14:39.678Z,1006.96
2018-11-14T08:15:39.664Z,1007.01
2018-11-14T08:16:39.665Z,1007.02
2018-11-14T08:17:39.686Z,1007.05
2018-11-14T08:18:39.768Z,1007.09
2018-11-14T08:19:39.625Z,1007.07
2018-11-14T08:20:39.612Z,1007.07
2018-11-14T08:21:39.606Z,1007.09
2018-11-14T08:22:39.613Z,1007.08
2018-11-14T08:23:39.626Z,1007.11
2018-11-14T08:24:39.575Z,1007.17
2018-11-14T08:25:39.568Z,1007.16
2018-11-14T08:26:39.554Z,1007.21
2018-11-14T08:27:39.542Z,1007.19
2018-11-14T08:28:39.534Z,1007.31
2018-11-14T08:29:39.557Z,1007.27
2018-11-14T08:30:39.621Z,1007.32
2018-11-14T08:31:39.494Z,1007.29
2018-11-14T08:32:39.576Z,1007.26
2018-11-14T08:33:39.485Z,1007.29
2018-11-14T08:34:39.460Z,1007.25
2018-11-14T08:35:39.490Z,1007.29
2018-11-14T08:36:39.440Z,1007.30
2018-11-14T08:37:39.441Z,1007.32
2018-11-14T08:38:39.420Z,1007.28
2018-11-14T08:39:39.408Z,1007.31
2018-11-14T08:40:39.403Z,1007.35
2018-11-14T08:41:39.426Z,1007.32
2018-11-14T08:42:50.075Z,1007.39
2018-11-14T08:43:39.360Z,1007.42
2018-11-14T08:44:39.350Z,1007.42
2018-11-14T08:45:39.343Z,1007.43
2018-11-14T08:46:39.336Z,1007.46
2018-11-14T08:47:39.393Z,1007.45
2018-11-14T08:48:39.312Z,1007.42
2018-11-14T08:49:39.302Z,1007.38
2018-11-14T08:50:39.296Z,1007.43
2018-11-14T08:51:39.316Z,1007.48
2018-11-14T08:52:39.262Z,1007.49
2018-11-14T08:53:39.444Z,1007.46
2018-11-14T08:54:39.246Z,1007.48
2018-11-14T08:55:39.234Z,1007.50
2018-11-14T08:56:39.229Z,1007.49
2018-11-14T08:57:39.218Z,1007.48
2018-11-14T08:58:39.202Z,1007.55
2018-11-14T08:59:39.236Z,1007.57
2018-11-14T09:00:39.207Z,1007.56
2018-11-14T09:01:39.169Z,1007.56
2018-11-14T09:02:39.161Z,1007.56
2018-11-14T09:03:39.151Z,1007.58
2018-11-14T09:04:39.139Z,1007.57
2018-11-14T09:05:39.464Z,1007.60
2018-11-14T09:06:39.124Z,1007.56
2018-11-14T09:07:39.167Z,1007.52
2018-11-14T09:08:39.093Z,1007.58
2018-11-14T09:09:39.097Z,1007.55
2018-11-14T09:10:39.073Z,1007.60
2018-11-14T09:11:39.459Z,1007.59
2018-11-14T09:12:39.137Z,1007.60
2018-11-14T09:13:49.511Z,1007.58
2018-11-14T09:14:39.049Z,1007.57
2018-11-14T09:15:39.022Z,1007.61
2018-11-14T09:16:39.002Z,1007.59
2018-11-14T09:17:39.178Z,1007.61
2018-11-14T09:18:39.009Z,1007.64
2018-11-14T09:19:38.979Z,1007.66
2018-11-14T09:20:38.971Z,1007.68
2018-11-14T09:21:38.958Z,1007.71
2018-11-14T09:22:38.949Z,1007.69
2018-11-14T09:23:38.958Z,1007.68
2018-11-14T09:24:38.942Z,1007.70
2018-11-14T09:25:38.904Z,1007.73
2018-11-14T09:26:38.906Z,1007.73
2018-11-14T09:27:38.892Z,1007.78
2018-11-14T09:28:38.885Z,1007.79
2018-11-14T09:29:38.909Z,1007.80
2018-11-14T09:30:38.861Z,1007.81
2018-11-14T09:31:38.853Z,1007.83
2018-11-14T09:32:38.839Z,1007.82
2018-11-14T09:33:38.826Z,1007.83
2018-11-14T09:34:38.844Z,1007.86
2018-11-14T09:35:38.839Z,1007.87
2018-11-14T09:36:38.794Z,1007.86
2018-11-14T09:37:38.779Z,1007.89
2018-11-14T09:38:38.807Z,1007.88
2018-11-14T09:39:38.763Z,1007.90
2018-11-14T09:40:38.762Z,1007.87
2018-11-14T09:41:38.778Z,1007.96
2018-11-14T09:42:38.724Z,1007.99
2018-11-14T09:43:38.735Z,1007.99
2018-11-14T09:44:49.032Z,1007.99
2018-11-14T09:45:38.692Z,1008.01
2018-11-14T09:46:38.684Z,1007.98
2018-11-14T09:47:38.710Z,1007.97
2018-11-14T09:48:38.689Z,1007.97
2018-11-14T09:49:38.652Z,1007.96
2018-11-14T09:50:38.649Z,1007.95
2018-11-14T09:51:38.632Z,1008.02
2018-11-14T09:52:38.665Z,1008.02
2018-11-14T09:53:38.690Z,1008.01
2018-11-14T09:54:38.598Z,1008.07
2018-11-14T09:55:38.591Z,1008.05
2018-11-14T09:56:38.589Z,1008.09
2018-11-14T09:57:38.567Z,1008.11
2018-11-14T09:58:38.589Z,1008.08
2018-11-14T09:59:38.589Z,1008.05
2018-11-14T10:00:38.560Z,1008.14
2018-11-14T10:01:38.521Z,1008.16
2018-11-14T10:02:38.567Z,1008.18
2018-11-14T10:03:38.570Z,1008.15
2018-11-14T10:04:38.490Z,1008.17
2018-11-14T10:05:38.592Z,1008.15
2018-11-14T10:06:38.469Z,1008.21
2018-11-14T10:07:38.511Z,1008.19
2018-11-14T10:08:38.446Z,1008.19
2018-11-14T10:09:38.431Z,1008.24
2018-11-14T10:10:38.427Z,1008.22
2018-11-14T10:11:38.452Z,1008.19
2018-11-14T10:12:38.405Z,1008.20
2018-11-14T10:13:38.393Z,1008.18
2018-11-14T10:14:38.381Z,1008.21
2018-11-14T10:15:49.655Z,1008.17
2018-11-14T10:16:38.359Z,1008.21
2018-11-14T10:17:38.382Z,1008.17
2018-11-14T10:18:38.335Z,1008.17
2018-11-14T10:19:38.323Z,1008.18
2018-11-14T10:20:38.345Z,1008.17
2018-11-14T10:21:38.321Z,1008.20
2018-11-14T10:22:38.295Z,1008.25
2018-11-14T10:23:38.352Z,1008.20
2018-11-14T10:24:38.271Z,1008.26
2018-11-14T10:25:38.259Z,1008.23
2018-11-14T10:26:38.254Z,1008.27
2018-11-14T10:27:38.258Z,1008.29
2018-11-14T10:28:38.229Z,1008.28
2018-11-14T10:29:38.403Z,1008.25
2018-11-14T10:30:38.214Z,1008.27
2018-11-14T10:31:38.296Z,1008.27
2018-11-14T10:32:38.179Z,1008.26
2018-11-14T10:33:38.173Z,1008.28
2018-11-14T10:34:38.168Z,1008.29
2018-11-14T10:35:38.191Z,1008.29
2018-11-14T10:36:38.143Z,1008.34
2018-11-14T10:37:38.148Z,1008.30
2018-11-14T10:38:38.121Z,1008.28
2018-11-14T10:39:38.108Z,1008.26
2018-11-14T10:40:38.100Z,1008.28
2018-11-14T10:41:38.257Z,1008.26
2018-11-14T10:42:38.080Z,1008.29
2018-11-14T10:43:38.068Z,1008.27
2018-11-14T10:44:38.054Z,1008.28
2018-11-14T10:45:38.044Z,1008.28
2018-11-14T10:46:48.551Z,1008.27
2018-11-14T10:47:38.017Z,1008.24
2018-11-14T10:48:38.007Z,1008.26
2018-11-14T10:49:38.010Z,1008.24
2018-11-14T10:50:37.980Z,1008.27
2018-11-14T10:51:37.978Z,1008.25
2018-11-14T10:52:38.054Z,1008.29
2018-11-14T10:53:37.949Z,1008.29
2018-11-14T10:54:37.940Z,1008.29
2018-11-14T10:55:37.926Z,1008.37
2018-11-14T10:56:37.940Z,1008.39
2018-11-14T10:57:37.910Z,1008.41
2018-11-14T10:58:37.938Z,1008.36
2018-11-14T10:59:37.885Z,1008.45
2018-11-14T11:00:37.873Z,1008.39
2018-11-14T11:01:37.865Z,1008.40
2018-11-14T11:02:37.868Z,1008.42
2018-11-14T11:03:37.847Z,1008.44
2018-11-14T11:04:38.004Z,1008.41
2018-11-14T11:05:37.820Z,1008.46
2018-11-14T11:06:37.813Z,1008.45
2018-11-14T11:07:37.814Z,1008.51
2018-11-14T11:08:37.875Z,1008.53
2018-11-14T11:09:37.773Z,1008.52
2018-11-14T11:10:37.812Z,1008.48
2018-11-14T11:11:37.760Z,1008.50
2018-11-14T11:12:37.742Z,1008.49
2018-11-14T11:13:37.775Z,1008.52
2018-11-14T11:14:37.727Z,1008.44
2018-11-14T11:15:37.720Z,1008.45
2018-11-14T11:16:37.733Z,1008.48
2018-11-14T11:17:48.403Z,1008.49
2018-11-14T11:18:37.671Z,1008.44
2018-11-14T11:19:37.670Z,1008.44
2018-11-14T11:20:37.652Z,1008.47
2018-11-14T11:21:37.647Z,1008.42
2018-11-14T11:22:37.670Z,1008.42
2018-11-14T11:23:37.706Z,1008.48
2018-11-14T11:24:37.615Z,1008.46
2018-11-14T11:25:37.597Z,1008.44
2018-11-14T11:26:37.590Z,1008.47
2018-11-14T11:27:37.578Z,1008.43
2018-11-14T11:28:37.597Z,1008.51
2018-11-14T11:29:37.552Z,1008.52
2018-11-14T11:30:37.598Z,1008.47
2018-11-14T11:31:37.531Z,1008.48
2018-11-14T11:32:37.539Z,1008.47
2018-11-14T11:33:37.512Z,1008.49
2018-11-14T11:34:37.556Z,1008.51
2018-11-14T11:35:37.486Z,1008.53
2018-11-14T11:36:37.480Z,1008.51
2018-11-14T11:37:37.475Z,1008.50
2018-11-14T11:38:37.471Z,1008.50
2018-11-14T11:39:37.446Z,1008.51
2018-11-14T11:40:37.451Z,1008.54
2018-11-14T11:41:37.424Z,1008.54
2018-11-14T11:42:37.407Z,1008.54
2018-11-14T11:43:37.405Z,1008.58
2018-11-14T11:44:37.558Z,1008.50
2018-11-14T11:45:37.374Z,1008.50
2018-11-14T11:46:37.402Z,1008.54
2018-11-14T11:47:37.374Z,1008.54
2018-11-14T11:48:47.965Z,1008.57
2018-11-14T11:49:37.334Z,1008.58
2018-11-14T11:50:37.324Z,1008.57
2018-11-14T11:51:37.316Z,1008.59
2018-11-14T11:52:37.317Z,1008.57
2018-11-14T11:53:37.295Z,1008.61
2018-11-14T11:54:37.285Z,1008.63
2018-11-14T11:55:37.281Z,1008.65
2018-11-14T11:56:37.257Z,1008.66
2018-11-14T11:57:37.323Z,1008.66
2018-11-14T11:58:37.277Z,1008.67
2018-11-14T11:59:37.315Z,1008.65
2018-11-14T12:00:37.419Z,1008.70
2018-11-14T12:01:37.208Z,1008.71
2018-11-14T12:02:37.192Z,1008.71
2018-11-14T12:03:37.181Z,1008.73
2018-11-14T12:04:37.207Z,1008.73
2018-11-14T12:05:37.175Z,1008.69